sensor_id;sensor_type;location;lat;lon;timestamp;pressure;altitude;pressure_sealevel;temperature;humidity
67545;BME280;54380;47.770;11.150;2023-02-02T00:01:15;95331.25;;;4.75;55.99
67545;BME280;54380;47.770;11.150;2023-02-02T00:06:54;95320.59;;;4.77;55.67
67545;BME280;54380;47.770;11.150;2023-02-02T00:09:37;95317.97;;;4.77;55.84
67545;BME280;54380;47.770;11.150;2023-02-02T00:12:18;95318.38;;;4.80;55.57
67545;BME280;54380;47.770;11.150;2023-02-02T00:15:00;95320.38;;;4.78;55.58
67545;BME280;54380;47.770;11.150;2023-02-02T00:27:29;95322.56;;;4.81;54.49
67545;BME280;54380;47.770;11.150;2023-02-02T00:30:12;95309.31;;;4.83;54.61
67545;BME280;54380;47.770;11.150;2023-02-02T00:32:43;95331.22;;;4.89;54.52
67545;BME280;54380;47.770;11.150;2023-02-02T00:44:30;95331.25;;;4.82;55.08
67545;BME280;54380;47.770;11.150;2023-02-02T01:05:57;95311.72;;;4.84;55.18
67545;BME280;54380;47.770;11.150;2023-02-02T01:08:25;95314.13;;;4.86;55.53
67545;BME280;54380;47.770;11.150;2023-02-02T01:13:47;95291.38;;;4.87;55.26
67545;BME280;54380;47.770;11.150;2023-02-02T01:16:14;95304.88;;;4.83;55.48
67545;BME280;54380;47.770;11.150;2023-02-02T01:18:46;95298.84;;;4.83;55.59
67545;BME280;54380;47.770;11.150;2023-02-02T01:24:18;95303.28;;;4.82;55.91
67545;BME280;54380;47.770;11.150;2023-02-02T01:26:46;95307.50;;;4.83;56.03
67545;BME280;54380;47.770;11.150;2023-02-02T01:29:26;95326.03;;;4.82;55.77
67545;BME280;54380;47.770;11.150;2023-02-02T01:31:57;95317.16;;;4.83;55.95
67545;BME280;54380;47.770;11.150;2023-02-02T01:34:24;95311.09;;;4.89;55.58
67545;BME280;54380;47.770;11.150;2023-02-02T01:37:06;95310.91;;;4.84;55.50
67545;BME280;54380;47.770;11.150;2023-02-02T01:39:50;95330.22;;;4.83;55.94
67545;BME280;54380;47.770;11.150;2023-02-02T01:42:24;95330.03;;;4.84;56.12
67545;BME280;54380;47.770;11.150;2023-02-02T01:45:16;95329.44;;;4.82;56.36
67545;BME280;54380;47.770;11.150;2023-02-02T01:47:58;95335.25;;;4.78;56.45
67545;BME280;54380;47.770;11.150;2023-02-02T01:50:35;95322.78;;;4.80;56.60
67545;BME280;54380;47.770;11.150;2023-02-02T01:53:03;95322.78;;;4.80;56.70
67545;BME280;54380;47.770;11.150;2023-02-02T01:55:48;95307.91;;;4.87;56.20
67545;BME280;54380;47.770;11.150;2023-02-02T01:58:28;95316.97;;;4.78;56.22
67545;BME280;54380;47.770;11.150;2023-02-02T02:01:04;95307.50;;;4.77;56.43
67545;BME280;54380;47.770;11.150;2023-02-02T02:03:39;95308.31;;;4.71;56.45
67545;BME280;54380;47.770;11.150;2023-02-02T02:06:14;95307.72;;;4.69;56.75
67545;BME280;54380;47.770;11.150;2023-02-02T02:08:49;95320.81;;;4.69;56.39
67545;BME280;54380;47.770;11.150;2023-02-02T02:11:27;95315.34;;;4.70;56.91
67545;BME280;54380;47.770;11.150;2023-02-02T02:13:57;95326.22;;;4.67;56.69
67545;BME280;54380;47.770;11.150;2023-02-02T02:16:57;95315.56;;;4.62;57.50
67545;BME280;54380;47.770;11.150;2023-02-02T02:22:58;95329.84;;;4.59;57.56
67545;BME280;54380;47.770;11.150;2023-02-02T02:26:14;95326.22;;;4.60;58.11
67545;BME280;54380;47.770;11.150;2023-02-02T02:29:27;95339.91;;;4.56;57.73
67545;BME280;54380;47.770;11.150;2023-02-02T02:32:10;95331.66;;;4.52;58.11
67545;BME280;54380;47.770;11.150;2023-02-02T02:35:01;95324.81;;;4.51;58.28
67545;BME280;54380;47.770;11.150;2023-02-02T02:37:38;95324.59;;;4.53;58.46
67545;BME280;54380;47.770;11.150;2023-02-02T02:42:53;95321.19;;;4.52;58.48
67545;BME280;54380;47.770;11.150;2023-02-02T02:45:24;95322.00;;;4.46;58.63
67545;BME280;54380;47.770;11.150;2023-02-02T02:48:02;95322.19;;;4.45;58.74
67545;BME280;54380;47.770;11.150;2023-02-02T02:50:33;95308.72;;;4.41;58.97
67545;BME280;54380;47.770;11.150;2023-02-02T02:55:55;95311.94;;;4.43;59.11
67545;BME280;54380;47.770;11.150;2023-02-02T02:58:31;95306.94;;;4.35;58.74
67545;BME280;54380;47.770;11.150;2023-02-02T03:01:06;95304.88;;;4.37;59.24
67545;BME280;54380;47.770;11.150;2023-02-02T03:03:47;95299.88;;;4.35;58.67
67545;BME280;54380;47.770;11.150;2023-02-02T03:06:20;95301.69;;;4.35;59.18
67545;BME280;54380;47.770;11.150;2023-02-02T03:08:52;95315.34;;;4.30;59.40
67545;BME280;54380;47.770;11.150;2023-02-02T03:11:21;95314.34;;;4.31;59.74
67545;BME280;54380;47.770;11.150;2023-02-02T03:13:50;95304.09;;;4.30;59.57
67545;BME280;54380;47.770;11.150;2023-02-02T03:33:38;95294.44;;;4.37;59.03
67545;BME280;54380;47.770;11.150;2023-02-02T03:36:06;95298.28;;;4.41;58.49
67545;BME280;54380;47.770;11.150;2023-02-02T03:38:33;95298.66;;;4.45;58.95
67545;BME280;54380;47.770;11.150;2023-02-02T03:41:00;95305.28;;;4.47;58.61
67545;BME280;54380;47.770;11.150;2023-02-02T03:43:28;95308.13;;;4.52;58.59
67545;BME280;54380;47.770;11.150;2023-02-02T03:51:58;95295.66;;;4.54;58.18
67545;BME280;54380;47.770;11.150;2023-02-02T03:54:28;95309.94;;;4.52;58.32
67545;BME280;54380;47.770;11.150;2023-02-02T03:57:03;95273.72;;;4.55;58.37
67545;BME280;54380;47.770;11.150;2023-02-02T04:02:18;95279.16;;;4.54;58.67
67545;BME280;54380;47.770;11.150;2023-02-02T04:07:34;95293.84;;;4.55;58.13
67545;BME280;54380;47.770;11.150;2023-02-02T04:13:03;95278.38;;;4.53;58.25
67545;BME280;54380;47.770;11.150;2023-02-02T04:15:31;95273.72;;;4.55;58.76
67545;BME280;54380;47.770;11.150;2023-02-02T04:17:58;95297.47;;;4.54;58.73
67545;BME280;54380;47.770;11.150;2023-02-02T04:20:25;95287.00;;;4.54;58.53
67545;BME280;54380;47.770;11.150;2023-02-02T04:22:54;95285.00;;;4.56;57.99
67545;BME280;54380;47.770;11.150;2023-02-02T04:25:21;95291.03;;;4.56;58.40
67545;BME280;54380;47.770;11.150;2023-02-02T04:27:48;95303.69;;;4.59;58.50
67545;BME280;54380;47.770;11.150;2023-02-02T04:30:17;95292.63;;;4.57;58.79
67545;BME280;54380;47.770;11.150;2023-02-02T04:32:45;95291.41;;;4.60;58.40
67545;BME280;54380;47.770;11.150;2023-02-02T04:35:12;95302.09;;;4.58;58.78
67545;BME280;54380;47.770;11.150;2023-02-02T04:37:39;95290.44;;;4.54;58.70
67545;BME280;54380;47.770;11.150;2023-02-02T04:42:58;95309.53;;;4.55;58.69
67545;BME280;54380;47.770;11.150;2023-02-02T04:45:26;95317.59;;;4.53;58.85
67545;BME280;54380;47.770;11.150;2023-02-02T04:47:53;95309.72;;;4.60;58.40
67545;BME280;54380;47.770;11.150;2023-02-02T04:53:15;95302.69;;;4.54;59.13
67545;BME280;54380;47.770;11.150;2023-02-02T04:58:41;95304.09;;;4.50;58.84
67545;BME280;54380;47.770;11.150;2023-02-02T05:01:10;95327.84;;;4.48;59.38
67545;BME280;54380;47.770;11.150;2023-02-02T05:03:38;95312.34;;;4.53;59.26
67545;BME280;54380;47.770;11.150;2023-02-02T05:06:05;95316.38;;;4.56;59.34
67545;BME280;54380;47.770;11.150;2023-02-02T05:08:33;95317.59;;;4.53;59.13
67545;BME280;54380;47.770;11.150;2023-02-02T05:20:02;95331.03;;;4.57;58.39
67545;BME280;54380;47.770;11.150;2023-02-02T05:22:28;95324.41;;;4.54;59.28
67545;BME280;54380;47.770;11.150;2023-02-02T05:24:55;95331.03;;;4.57;59.05
67545;BME280;54380;47.770;11.150;2023-02-02T05:27:24;95315.97;;;4.59;58.40
67545;BME280;54380;47.770;11.150;2023-02-02T05:32:48;95325.00;;;4.63;58.92
67545;BME280;54380;47.770;11.150;2023-02-02T05:35:17;95316.34;;;4.62;58.64
67545;BME280;54380;47.770;11.150;2023-02-02T05:37:44;95338.28;;;4.61;59.00
67545;BME280;54380;47.770;11.150;2023-02-02T05:40:13;95324.00;;;4.64;58.81
67545;BME280;54380;47.770;11.150;2023-02-02T05:48:43;95331.25;;;4.62;58.87
67545;BME280;54380;47.770;11.150;2023-02-02T05:56:58;95332.63;;;4.71;58.80
67545;BME280;54380;47.770;11.150;2023-02-02T06:08:35;95353.38;;;4.66;59.06
67545;BME280;54380;47.770;11.150;2023-02-02T06:11:08;95358.41;;;4.68;58.63
67545;BME280;54380;47.770;11.150;2023-02-02T06:13:36;95344.53;;;4.67;58.96
67545;BME280;54380;47.770;11.150;2023-02-02T06:21:47;95347.34;;;4.72;58.18
67545;BME280;54380;47.770;11.150;2023-02-02T06:24:40;95359.41;;;4.73;58.65
67545;BME280;54380;47.770;11.150;2023-02-02T06:33:08;95366.84;;;4.70;59.02
67545;BME280;54380;47.770;11.150;2023-02-02T06:35:35;95375.09;;;4.73;58.71
67545;BME280;54380;47.770;11.150;2023-02-02T06:38:02;95371.06;;;4.71;58.77
67545;BME280;54380;47.770;11.150;2023-02-02T06:49:55;95371.06;;;4.71;58.26
67545;BME280;54380;47.770;11.150;2023-02-02T07:01:30;95402.03;;;4.74;58.27
67545;BME280;54380;47.770;11.150;2023-02-02T08:23:13;95443.72;;;4.82;59.61
67545;BME280;54380;47.770;11.150;2023-02-02T08:28:51;95439.47;;;4.81;59.68
67545;BME280;54380;47.770;11.150;2023-02-02T08:34:13;95447.72;;;4.78;59.77
67545;BME280;54380;47.770;11.150;2023-02-02T08:45:42;95445.72;;;4.67;60.33
67545;BME280;54380;47.770;11.150;2023-02-02T08:48:30;95453.94;;;4.64;61.13
67545;BME280;54380;47.770;11.150;2023-02-02T08:50:57;95449.31;;;4.66;61.18
67545;BME280;54380;47.770;11.150;2023-02-02T08:53:25;95466.81;;;4.65;60.72
67545;BME280;54380;47.770;11.150;2023-02-02T08:55:56;95462.59;;;4.64;60.76
67545;BME280;54380;47.770;11.150;2023-02-02T08:58:24;95463.59;;;4.63;61.35
67545;BME280;54380;47.770;11.150;2023-02-02T09:00:52;95459.41;;;4.69;61.20
67545;BME280;54380;47.770;11.150;2023-02-02T09:03:20;95471.84;;;4.67;61.04
67545;BME280;54380;47.770;11.150;2023-02-02T09:05:47;95455.94;;;4.68;61.45
67545;BME280;54380;47.770;11.150;2023-02-02T09:08:13;95471.84;;;4.67;61.80
67545;BME280;54380;47.770;11.150;2023-02-02T09:10:40;95458.56;;;4.68;61.46
67545;BME280;54380;47.770;11.150;2023-02-02T09:13:07;95468.22;;;4.68;61.31
67545;BME280;54380;47.770;11.150;2023-02-02T09:15:33;95483.50;;;4.71;61.54
67545;BME280;54380;47.770;11.150;2023-02-02T09:18:01;95469.22;;;4.73;61.19
67545;BME280;54380;47.770;11.150;2023-02-02T09:20:28;95469.84;;;4.75;61.29
67545;BME280;54380;47.770;11.150;2023-02-02T09:22:55;95479.50;;;4.75;61.13
67545;BME280;54380;47.770;11.150;2023-02-02T09:25:23;95480.13;;;4.77;61.44
67545;BME280;54380;47.770;11.150;2023-02-02T09:27:51;95484.34;;;4.78;61.50
67545;BME280;54380;47.770;11.150;2023-02-02T09:30:18;95497.81;;;4.81;60.97
67545;BME280;54380;47.770;11.150;2023-02-02T09:32:47;95492.00;;;4.86;60.94
67545;BME280;54380;47.770;11.150;2023-02-02T09:35:15;95487.38;;;4.88;60.49
67545;BME280;54380;47.770;11.150;2023-02-02T09:37:42;95497.22;;;4.86;61.04
67545;BME280;54380;47.770;11.150;2023-02-02T09:40:14;95513.50;;;4.81;61.31
67545;BME280;54380;47.770;11.150;2023-02-02T09:42:54;95511.31;;;4.85;60.89
67545;BME280;54380;47.770;11.150;2023-02-02T09:45:28;95519.16;;;4.85;61.84
67545;BME280;54380;47.770;11.150;2023-02-02T09:48:04;95517.97;;;4.88;61.38
67545;BME280;54380;47.770;11.150;2023-02-02T09:50:42;95522.97;;;4.89;61.22
67545;BME280;54380;47.770;11.150;2023-02-02T09:53:21;95527.81;;;4.92;60.75
67545;BME280;54380;47.770;11.150;2023-02-02T09:55:51;95534.47;;;4.88;61.17
67545;BME280;54380;47.770;11.150;2023-02-02T09:58:23;95525.59;;;4.89;60.83
67545;BME280;54380;47.770;11.150;2023-02-02T10:00:55;95533.66;;;4.88;61.39
67545;BME280;54380;47.770;11.150;2023-02-02T10:03:29;95534.47;;;4.88;60.92
67545;BME280;54380;47.770;11.150;2023-02-02T10:06:05;95534.47;;;4.88;60.92
67545;BME280;54380;47.770;11.150;2023-02-02T10:08:41;95536.06;;;4.89;61.01
67545;BME280;54380;47.770;11.150;2023-02-02T10:11:24;95542.13;;;4.96;61.45
67545;BME280;54380;47.770;11.150;2023-02-02T10:13:56;95558.22;;;5.00;60.45
67545;BME280;54380;47.770;11.150;2023-02-02T10:16:25;95546.75;;;5.01;60.64
67545;BME280;54380;47.770;11.150;2023-02-02T10:18:55;95557.22;;;5.01;60.72
67545;BME280;54380;47.770;11.150;2023-02-02T10:21:32;95564.47;;;4.99;60.84
67545;BME280;54380;47.770;11.150;2023-02-02T10:24:02;95566.06;;;5.00;60.37
67545;BME280;54380;47.770;11.150;2023-02-02T10:26:35;95560.66;;;5.01;60.63
67545;BME280;54380;47.770;11.150;2023-02-02T10:29:14;95571.91;;;5.02;60.35
67545;BME280;54380;47.770;11.150;2023-02-02T10:31:43;95575.31;;;5.02;60.66
67545;BME280;54380;47.770;11.150;2023-02-02T10:34:17;95574.13;;;5.05;60.84
67545;BME280;54380;47.770;11.150;2023-02-02T10:36:55;95565.88;;;5.08;60.06
67545;BME280;54380;47.770;11.150;2023-02-02T10:39:32;95565.06;;;5.07;60.62
67545;BME280;54380;47.770;11.150;2023-02-02T10:44:59;95561.25;;;5.03;60.64
67545;BME280;54380;47.770;11.150;2023-02-02T10:47:30;95567.91;;;5.06;60.46
67545;BME280;54380;47.770;11.150;2023-02-02T10:50:09;95565.06;;;5.07;60.06
67545;BME280;54380;47.770;11.150;2023-02-02T10:52:45;95566.69;;;5.09;60.16
67545;BME280;54380;47.770;11.150;2023-02-02T10:55:20;95560.66;;;5.01;60.01
67545;BME280;54380;47.770;11.150;2023-02-02T10:57:53;95570.09;;;5.02;60.49
67545;BME280;54380;47.770;11.150;2023-02-02T11:00:31;95566.88;;;5.07;60.37
67545;BME280;54380;47.770;11.150;2023-02-02T11:03:00;95563.47;;;5.06;59.88
67545;BME280;54380;47.770;11.150;2023-02-02T11:05:30;95552.63;;;5.16;60.09
67545;BME280;54380;47.770;11.150;2023-02-02T11:11:11;95570.53;;;5.13;59.95
67545;BME280;54380;47.770;11.150;2023-02-02T11:13:44;95559.88;;;5.14;59.76
67545;BME280;54380;47.770;11.150;2023-02-02T11:19:21;95543.56;;;5.12;60.04
67545;BME280;54380;47.770;11.150;2023-02-02T11:24:47;95549.19;;;5.09;60.04
67545;BME280;54380;47.770;11.150;2023-02-02T11:27:17;95534.91;;;5.12;60.26
67545;BME280;54380;47.770;11.150;2023-02-02T11:29:47;95524.63;;;5.10;60.23
67545;BME280;54380;47.770;11.150;2023-02-02T11:32:19;95539.53;;;5.10;60.77
67545;BME280;54380;47.770;11.150;2023-02-02T11:35:13;95526.63;;;5.08;61.30
67545;BME280;54380;47.770;11.150;2023-02-02T11:37:55;95533.09;;;5.05;61.11
67545;BME280;54380;47.770;11.150;2023-02-02T11:40:28;95528.03;;;4.97;61.29
67545;BME280;54380;47.770;11.150;2023-02-02T11:42:56;95528.84;;;4.98;61.47
67545;BME280;54380;47.770;11.150;2023-02-02T11:45:28;95527.44;;;4.95;61.27
67545;BME280;54380;47.770;11.150;2023-02-02T11:48:01;95526.59;;;4.95;61.29
67545;BME280;54380;47.770;11.150;2023-02-02T11:50:28;95517.56;;;4.97;61.36
67545;BME280;54380;47.770;11.150;2023-02-02T11:52:56;95512.13;;;4.99;61.04
67545;BME280;54380;47.770;11.150;2023-02-02T11:55:28;95514.75;;;4.99;61.54
67545;BME280;54380;47.770;11.150;2023-02-02T11:58:22;95513.16;;;4.98;61.54
67545;BME280;54380;47.770;11.150;2023-02-02T12:00:58;95520.38;;;4.96;61.28
67545;BME280;54380;47.770;11.150;2023-02-02T12:03:31;95522.41;;;4.94;61.90
67545;BME280;54380;47.770;11.150;2023-02-02T12:05:58;95517.16;;;4.94;62.13
67545;BME280;54380;47.770;11.150;2023-02-02T12:08:28;95524.59;;;4.97;61.49
67545;BME280;54380;47.770;11.150;2023-02-02T12:10:59;95511.31;;;4.92;61.88
67545;BME280;54380;47.770;11.150;2023-02-02T12:13:38;95526.81;;;4.93;61.89
67545;BME280;54380;47.770;11.150;2023-02-02T12:16:20;95511.94;;;4.87;62.08
67545;BME280;54380;47.770;11.150;2023-02-02T12:19:02;95511.09;;;4.87;62.51
67545;BME280;54380;47.770;11.150;2023-02-02T12:21:38;95507.28;;;4.89;62.63
67545;BME280;54380;47.770;11.150;2023-02-02T12:24:26;95513.13;;;4.91;62.68
67545;BME280;54380;47.770;11.150;2023-02-02T12:27:15;95510.31;;;4.86;62.05
67545;BME280;54380;47.770;11.150;2023-02-02T12:30:06;95507.91;;;4.91;62.51
67545;BME280;54380;47.770;11.150;2023-02-02T12:32:51;95516.53;;;4.92;62.06
67545;BME280;54380;47.770;11.150;2023-02-02T12:35:32;95508.09;;;4.96;61.80
67545;BME280;54380;47.770;11.150;2023-02-02T12:38:11;95510.53;;;4.98;61.40
67545;BME280;54380;47.770;11.150;2023-02-02T12:40:55;95512.53;;;4.96;61.89
67545;BME280;54380;47.770;11.150;2023-02-02T12:43:37;95513.34;;;4.96;62.51
67545;BME280;54380;47.770;11.150;2023-02-02T12:46:08;95514.34;;;4.95;62.32
67545;BME280;54380;47.770;11.150;2023-02-02T12:48:49;95515.56;;;4.93;62.99
67545;BME280;54380;47.770;11.150;2023-02-02T12:51:32;95511.34;;;4.98;62.58
67545;BME280;54380;47.770;11.150;2023-02-02T12:54:17;95524.00;;;5.01;61.79
67545;BME280;54380;47.770;11.150;2023-02-02T12:57:13;95522.41;;;5.00;61.94
67545;BME280;54380;47.770;11.150;2023-02-02T13:00:10;95526.63;;;5.01;61.79
67545;BME280;54380;47.770;11.150;2023-02-02T13:02:53;95509.53;;;4.99;62.32
67545;BME280;54380;47.770;11.150;2023-02-02T13:05:32;95508.28;;;4.95;62.13
67545;BME280;54380;47.770;11.150;2023-02-02T13:08:05;95510.53;;;4.98;62.23
67545;BME280;54380;47.770;11.150;2023-02-02T13:10:37;95503.06;;;4.95;62.60
67545;BME280;54380;47.770;11.150;2023-02-02T13:13:08;95506.72;;;5.00;62.26
67545;BME280;54380;47.770;11.150;2023-02-02T13:15:41;95519.38;;;4.97;62.89
67545;BME280;54380;47.770;11.150;2023-02-02T13:18:13;95519.78;;;4.94;62.85
67545;BME280;54380;47.770;11.150;2023-02-02T13:20:47;95517.97;;;5.01;62.72
67545;BME280;54380;47.770;11.150;2023-02-02T13:23:18;95508.72;;;4.98;62.89
67545;BME280;54380;47.770;11.150;2023-02-02T13:25:48;95514.13;;;4.97;62.40
67545;BME280;54380;47.770;11.150;2023-02-02T13:31:15;95537.06;;;4.95;62.57
67545;BME280;54380;47.770;11.150;2023-02-02T13:33:47;95536.50;;;4.93;62.83
67545;BME280;54380;47.770;11.150;2023-02-02T13:36:19;95536.28;;;4.94;62.15
67545;BME280;54380;47.770;11.150;2023-02-02T13:38:53;95544.34;;;4.93;62.04
67545;BME280;54380;47.770;11.150;2023-02-02T13:41:22;95550.56;;;4.92;62.13
67545;BME280;54380;47.770;11.150;2023-02-02T13:43:53;95542.53;;;4.93;62.46
67545;BME280;54380;47.770;11.150;2023-02-02T13:46:29;95537.91;;;4.95;62.78
67545;BME280;54380;47.770;11.150;2023-02-02T13:49:03;95552.59;;;4.96;62.33
67545;BME280;54380;47.770;11.150;2023-02-02T13:51:44;95551.34;;;4.92;62.37
67545;BME280;54380;47.770;11.150;2023-02-02T13:54:38;95548.75;;;4.92;62.40
67545;BME280;54380;47.770;11.150;2023-02-02T13:57:21;95552.97;;;4.93;62.58
67545;BME280;54380;47.770;11.150;2023-02-02T14:00:00;95570.91;;;4.96;63.08
67545;BME280;54380;47.770;11.150;2023-02-02T14:02:39;95578.13;;;4.94;62.33
67545;BME280;54380;47.770;11.150;2023-02-02T14:05:20;95585.38;;;4.92;62.87
67545;BME280;54380;47.770;11.150;2023-02-02T14:07:54;95578.94;;;4.95;62.31
67545;BME280;54380;47.770;11.150;2023-02-02T14:10:25;95583.94;;;4.90;62.83
67545;BME280;54380;47.770;11.150;2023-02-02T14:12:54;95594.22;;;4.91;63.29
67545;BME280;54380;47.770;11.150;2023-02-02T14:15:36;95583.56;;;4.93;62.96
67545;BME280;54380;47.770;11.150;2023-02-02T14:18:06;95583.38;;;4.94;62.82
67545;BME280;54380;47.770;11.150;2023-02-02T14:20:42;95582.16;;;4.90;62.38
67545;BME280;54380;47.770;11.150;2023-02-02T14:26:19;95586.75;;;4.81;62.96
67545;BME280;54380;47.770;11.150;2023-02-02T14:29:57;95594.41;;;4.83;63.03
67545;BME280;54380;47.770;11.150;2023-02-02T14:32:30;95589.00;;;4.84;62.85
67545;BME280;54380;47.770;11.150;2023-02-02T14:38:09;95604.25;;;4.81;62.92
67545;BME280;54380;47.770;11.150;2023-02-02T14:40:46;95588.97;;;4.78;63.76
67545;BME280;54380;47.770;11.150;2023-02-02T14:43:23;95585.94;;;4.81;63.33
67545;BME280;54380;47.770;11.150;2023-02-02T14:46:38;95588.56;;;4.81;63.09
67545;BME280;54380;47.770;11.150;2023-02-02T14:49:11;95598.22;;;4.80;63.38
67545;BME280;54380;47.770;11.150;2023-02-02T14:51:54;95592.38;;;4.78;63.27
67545;BME280;54380;47.770;11.150;2023-02-02T14:54:29;95589.56;;;4.80;63.22
67545;BME280;54380;47.770;11.150;2023-02-02T14:56:59;95593.59;;;4.82;63.44
67545;BME280;54380;47.770;11.150;2023-02-02T14:59:31;95591.16;;;4.81;63.35
67545;BME280;54380;47.770;11.150;2023-02-02T15:02:07;95595.78;;;4.79;63.27
67545;BME280;54380;47.770;11.150;2023-02-02T15:04:35;95601.00;;;4.72;63.56
67545;BME280;54380;47.770;11.150;2023-02-02T15:07:49;95600.44;;;4.77;63.22
67545;BME280;54380;47.770;11.150;2023-02-02T15:13:21;95600.41;;;4.70;63.45
67545;BME280;54380;47.770;11.150;2023-02-02T15:15:59;95608.28;;;4.77;63.42
67545;BME280;54380;47.770;11.150;2023-02-02T15:18:33;95617.69;;;4.71;63.23
67545;BME280;54380;47.770;11.150;2023-02-02T15:21:05;95602.22;;;4.70;63.50
67545;BME280;54380;47.770;11.150;2023-02-02T15:23:39;95613.88;;;4.67;63.42
67545;BME280;54380;47.770;11.150;2023-02-02T15:26:10;95620.91;;;4.67;63.98
67545;BME280;54380;47.770;11.150;2023-02-02T15:28:41;95616.09;;;4.70;63.41
67545;BME280;54380;47.770;11.150;2023-02-02T15:31:14;95612.84;;;4.68;64.15
67545;BME280;54380;47.770;11.150;2023-02-02T15:33:46;95626.38;;;4.72;64.29
67545;BME280;54380;47.770;11.150;2023-02-02T15:36:17;95623.13;;;4.70;63.12
67545;BME280;54380;47.770;11.150;2023-02-02T15:38:50;95621.53;;;4.69;63.93
67545;BME280;54380;47.770;11.150;2023-02-02T15:41:20;95632.34;;;4.66;64.18
67545;BME280;54380;47.770;11.150;2023-02-02T15:43:49;95627.72;;;4.61;64.05
67545;BME280;54380;47.770;11.150;2023-02-02T15:46:19;95631.31;;;4.60;64.03
67545;BME280;54380;47.770;11.150;2023-02-02T15:49:25;95640.00;;;4.67;64.24
67545;BME280;54380;47.770;11.150;2023-02-02T15:52:09;95642.22;;;4.64;64.58
67545;BME280;54380;47.770;11.150;2023-02-02T15:54:48;95642.41;;;4.62;64.32
67545;BME280;54380;47.770;11.150;2023-02-02T15:57:36;95637.78;;;4.64;63.98
67545;BME280;54380;47.770;11.150;2023-02-02T16:00:22;95634.38;;;4.64;64.70
67545;BME280;54380;47.770;11.150;2023-02-02T16:02:53;95648.25;;;4.64;63.96
67545;BME280;54380;47.770;11.150;2023-02-02T16:05:24;95638.97;;;4.61;64.58
67545;BME280;54380;47.770;11.150;2023-02-02T16:08:06;95645.19;;;4.60;64.46
67545;BME280;54380;47.770;11.150;2023-02-02T16:10:37;95648.44;;;4.62;65.04
67545;BME280;54380;47.770;11.150;2023-02-02T16:13:04;95644.44;;;4.67;64.18
67545;BME280;54380;47.770;11.150;2023-02-02T16:15:31;95651.69;;;4.71;64.25
67545;BME280;54380;47.770;11.150;2023-02-02T16:18:00;95657.94;;;4.70;64.50
67545;BME280;54380;47.770;11.150;2023-02-02T16:20:28;95654.28;;;4.65;64.75
67545;BME280;54380;47.770;11.150;2023-02-02T16:22:56;95673.63;;;4.70;63.99
67545;BME280;54380;47.770;11.150;2023-02-02T16:25:33;95678.06;;;4.76;64.34
67545;BME280;54380;47.770;11.150;2023-02-02T16:28:04;95690.09;;;4.71;63.86
67545;BME280;54380;47.770;11.150;2023-02-02T16:30:32;95679.66;;;4.71;64.55
67545;BME280;54380;47.770;11.150;2023-02-02T16:33:26;95694.94;;;4.74;64.12
67545;BME280;54380;47.770;11.150;2023-02-02T16:35:55;95698.63;;;4.79;64.19
67545;BME280;54380;47.770;11.150;2023-02-02T16:38:25;95709.88;;;4.80;64.03
67545;BME280;54380;47.770;11.150;2023-02-02T16:41:06;95699.22;;;4.81;63.80
67545;BME280;54380;47.770;11.150;2023-02-02T16:43:36;95705.47;;;4.80;64.52
67545;BME280;54380;47.770;11.150;2023-02-02T16:46:05;95715.75;;;4.82;64.30
67545;BME280;54380;47.770;11.150;2023-02-02T16:48:35;95709.91;;;4.87;64.25
67545;BME280;54380;47.770;11.150;2023-02-02T16:51:07;95728.03;;;4.88;64.36
67545;BME280;54380;47.770;11.150;2023-02-02T16:53:35;95720.19;;;4.88;63.75
67545;BME280;54380;47.770;11.150;2023-02-02T16:56:04;95716.94;;;4.86;64.26
67545;BME280;54380;47.770;11.150;2023-02-02T16:58:38;95719.38;;;4.88;64.46
67545;BME280;54380;47.770;11.150;2023-02-02T17:01:08;95719.97;;;4.90;64.28
67545;BME280;54380;47.770;11.150;2023-02-02T17:03:48;95723.81;;;4.87;63.60
67545;BME280;54380;47.770;11.150;2023-02-02T17:06:24;95712.97;;;4.90;63.50
67545;BME280;54380;47.770;11.150;2023-02-02T17:08:52;95712.75;;;4.92;63.80
67545;BME280;54380;47.770;11.150;2023-02-02T17:11:21;95716.00;;;4.94;63.61
67545;BME280;54380;47.770;11.150;2023-02-02T17:13:51;95729.25;;;4.92;63.66
67545;BME280;54380;47.770;11.150;2023-02-02T17:16:20;95725.44;;;4.95;63.26
67545;BME280;54380;47.770;11.150;2023-02-02T17:18:50;95733.69;;;4.92;63.94
67545;BME280;54380;47.770;11.150;2023-02-02T17:21:19;95736.91;;;4.94;64.13
67545;BME280;54380;47.770;11.150;2023-02-02T17:23:48;95742.78;;;4.96;63.31
67545;BME280;54380;47.770;11.150;2023-02-02T17:26:17;95738.53;;;4.95;64.10
67545;BME280;54380;47.770;11.150;2023-02-02T17:28:44;95744.34;;;4.90;64.31
67545;BME280;54380;47.770;11.150;2023-02-02T17:31:14;95740.09;;;4.89;64.13
67545;BME280;54380;47.770;11.150;2023-02-02T17:33:42;95744.75;;;4.94;64.06
67545;BME280;54380;47.770;11.150;2023-02-02T17:36:12;95744.94;;;4.92;63.81
67545;BME280;54380;47.770;11.150;2023-02-02T17:38:39;95745.97;;;4.91;63.73
67545;BME280;54380;47.770;11.150;2023-02-02T17:41:06;95758.41;;;4.89;63.49
67545;BME280;54380;47.770;11.150;2023-02-02T17:43:33;95762.66;;;4.90;63.83
67545;BME280;54380;47.770;11.150;2023-02-02T17:46:01;95762.03;;;4.88;64.15
67545;BME280;54380;47.770;11.150;2023-02-02T17:48:29;95763.47;;;4.91;63.82
67545;BME280;54380;47.770;11.150;2023-02-02T17:50:56;95766.88;;;4.91;63.81
67545;BME280;54380;47.770;11.150;2023-02-02T17:53:23;95777.75;;;4.95;63.62
67545;BME280;54380;47.770;11.150;2023-02-02T17:55:50;95779.16;;;4.91;64.00
67545;BME280;54380;47.770;11.150;2023-02-02T17:58:18;95782.75;;;4.90;63.97
67545;BME280;54380;47.770;11.150;2023-02-02T18:00:48;95781.97;;;4.89;63.99
67545;BME280;54380;47.770;11.150;2023-02-02T18:03:20;95776.69;;;4.82;64.69
67545;BME280;54380;47.770;11.150;2023-02-02T18:05:50;95795.63;;;4.84;64.42
67545;BME280;54380;47.770;11.150;2023-02-02T18:08:17;95799.44;;;4.82;64.74
67545;BME280;54380;47.770;11.150;2023-02-02T18:10:45;95799.00;;;4.78;65.08
67545;BME280;54380;47.770;11.150;2023-02-02T18:13:14;95803.84;;;4.81;64.60